Time;durP1;ratioP1;P1;durP2;ratioP2;P2;SDS_P1;SDS_P2;PMS_P1;PMS_P2;Temp;Humidity;BMP_temperature;BMP_pressure;BME280_temperature;BME280_humidity;BME280_pressure;Samples;Min_cycle;Max_cycle;Signal;HPM_P1;HPM_P2
2022/01/01 00:01:04;;;;;;;5.82;0.77;;;27.50;99.90;;;;;;5076227;28;20212;-77
2022/01/01 00:03:35;;;;;;;3.58;0.75;;;27.50;99.90;;;;;;5069591;28;20192;-76
2022/01/01 00:06:05;;;;;;;3.55;0.60;;;27.50;99.90;;;;;;5088192;28;20547;-78
2022/01/01 00:08:36;;;;;;;7.10;0.90;;;27.80;99.90;;;;;;5076841;28;20180;-77
2022/01/01 00:11:08;;;;;;;5.28;1.08;;;28.00;99.90;;;;;;5075443;28;20641;-78
2022/01/01 00:13:39;;;;;;;4.18;0.65;;;28.10;99.90;;;;;;5084800;28;20223;-77
2022/01/01 00:16:10;;;;;;;7.63;0.90;;;28.20;99.90;;;;;;5075290;28;20541;-78
2022/01/01 00:18:41;;;;;;;3.85;0.80;;;28.20;99.90;;;;;;5075189;28;20548;-78
2022/01/01 00:21:12;;;;;;;2.70;0.75;;;28.10;99.90;;;;;;5075242;28;20209;-77
2022/01/01 00:23:43;;;;;;;5.93;0.70;;;28.20;99.90;;;;;;5074789;28;20250;-79
2022/01/01 00:26:16;;;;;;;5.13;0.75;;;28.30;99.90;;;;;;5083665;28;20215;-78
2022/01/01 00:28:46;;;;;;;5.18;0.80;;;28.30;99.90;;;;;;5076782;28;20225;-78
2022/01/01 00:31:17;;;;;;;6.55;0.77;;;28.10;99.90;;;;;;5074669;28;20246;-79
2022/01/01 00:33:48;;;;;;;5.93;0.70;;;28.20;99.90;;;;;;5077292;28;20226;-77
2022/01/01 00:36:18;;;;;;;4.60;0.80;;;28.20;99.90;;;;;;5084762;28;20215;-76
2022/01/01 00:38:49;;;;;;;5.43;0.75;;;28.20;99.90;;;;;;5094827;28;20192;-78
2022/01/01 00:41:22;;;;;;;4.18;0.65;;;28.00;99.90;;;;;;5082691;28;20215;-78
2022/01/01 00:43:52;;;;;;;4.35;0.85;;;27.80;99.90;;;;;;5074746;28;20201;-77
2022/01/01 00:46:23;;;;;;;2.33;0.70;;;27.70;99.90;;;;;;5090675;28;20188;-78
2022/01/01 00:48:54;;;;;;;5.57;0.73;;;27.90;99.90;;;;;;5074154;28;20189;-78
2022/01/01 00:51:25;;;;;;;3.38;0.68;;;27.90;99.90;;;;;;5074963;28;20251;-77
2022/01/01 00:53:56;;;;;;;4.40;0.80;;;27.90;99.90;;;;;;5075110;28;20196;-78
2022/01/01 00:56:29;;;;;;;5.00;0.70;;;28.10;99.90;;;;;;5075518;28;20189;-77
2022/01/01 00:58:59;;;;;;;4.28;0.80;;;27.90;99.90;;;;;;5074663;28;20597;-77
2022/01/01 01:01:30;;;;;;;4.70;0.80;;;28.00;99.90;;;;;;5073885;28;20579;-77
2022/01/01 01:04:01;;;;;;;5.20;1.08;;;28.20;99.90;;;;;;5074402;28;20193;-76
2022/01/01 01:06:31;;;;;;;5.32;0.90;;;28.10;99.90;;;;;;5080537;28;20195;-79
2022/01/01 01:09:02;;;;;;;4.03;0.70;;;28.30;99.90;;;;;;5092174;28;20192;-78
2022/01/01 01:11:41;;;;;;;3.85;0.75;;;28.40;99.90;;;;;;5077479;28;20222;-79
2022/01/01 01:14:19;;;;;;;7.20;0.90;;;28.20;99.90;;;;;;5085830;28;20277;-77
2022/01/01 01:16:51;;;;;;;5.15;0.77;;;28.20;99.90;;;;;;5086319;28;20192;-77
2022/01/01 01:19:25;;;;;;;5.07;0.88;;;28.40;99.90;;;;;;5072637;28;20193;-78
2022/01/01 01:21:56;;;;;;;4.13;0.93;;;28.50;99.90;;;;;;5073729;28;20215;-77
2022/01/01 01:24:26;;;;;;;3.65;0.80;;;28.50;99.90;;;;;;5086661;28;20188;-77
2022/01/01 01:27:01;;;;;;;7.47;1.10;;;28.60;99.90;;;;;;5090098;28;20249;-77
2022/01/01 01:29:36;;;;;;;5.47;0.70;;;28.60;99.90;;;;;;5076237;28;20554;-78
2022/01/01 01:32:07;;;;;;;5.97;1.05;;;28.70;99.90;;;;;;5088187;28;20203;-77
2022/01/01 01:34:38;;;;;;;7.20;0.95;;;28.50;99.90;;;;;;5084050;28;20212;-77
2022/01/01 01:37:09;;;;;;;6.80;1.15;;;28.50;99.90;;;;;;5077351;28;20201;-77
2022/01/01 01:39:40;;;;;;;2.70;0.73;;;28.50;99.90;;;;;;5073727;28;20197;-77
2022/01/01 01:42:16;;;;;;;6.15;1.08;;;28.40;99.90;;;;;;5056877;28;20241;-78
2022/01/01 01:44:48;;;;;;;5.10;0.93;;;28.30;99.90;;;;;;5061030;28;20196;-77
2022/01/01 01:47:27;;;;;;;6.28;1.05;;;28.20;99.90;;;;;;5060604;28;20642;-77
2022/01/01 01:49:58;;;;;;;4.35;0.82;;;28.50;99.90;;;;;;5053870;28;20190;-77
2022/01/01 01:52:33;;;;;;;6.15;0.82;;;28.40;99.90;;;;;;5068671;28;20197;-78
2022/01/01 01:55:06;;;;;;;5.53;0.80;;;28.40;99.90;;;;;;5064986;28;20640;-77
2022/01/01 01:57:41;;;;;;;9.40;1.08;;;28.20;99.90;;;;;;5058116;28;20204;-78
2022/01/01 02:00:27;;;;;;;5.13;0.82;;;28.10;99.90;;;;;;5057528;28;20223;-78
2022/01/01 02:02:58;;;;;;;10.63;1.08;;;28.40;99.90;;;;;;5071932;28;20311;-77
2022/01/01 02:05:29;;;;;;;3.00;0.73;;;28.30;99.90;;;;;;5057929;28;20197;-80
2022/01/01 02:08:00;;;;;;;9.50;1.13;;;28.40;99.90;;;;;;5071202;28;20200;-78
2022/01/01 02:10:31;;;;;;;4.20;0.80;;;28.20;99.90;;;;;;5071963;28;20247;-78
2022/01/01 02:13:11;;;;;;;4.35;0.85;;;28.00;99.90;;;;;;5066961;28;20240;-77
2022/01/01 02:15:57;;;;;;;6.25;0.93;;;27.70;99.90;;;;;;5064543;28;20598;-77
2022/01/01 02:18:28;;;;;;;4.25;1.02;;;27.40;99.90;;;;;;5057744;28;20198;-77
2022/01/01 02:21:02;;;;;;;4.50;0.80;;;27.50;99.90;;;;;;5063414;28;20637;-77
2022/01/01 02:23:33;;;;;;;4.18;0.80;;;27.60;99.90;;;;;;5071015;28;20676;-78
2022/01/01 02:26:04;;;;;;;6.95;0.90;;;27.70;99.90;;;;;;5054902;28;20194;-77
2022/01/01 02:28:34;;;;;;;4.00;0.70;;;27.70;99.90;;;;;;5053027;28;20212;-77
2022/01/01 02:31:05;;;;;;;2.80;0.70;;;27.70;99.90;;;;;;5054271;28;20213;-78
2022/01/01 02:33:36;;;;;;;4.53;0.75;;;27.70;99.90;;;;;;5065105;28;20219;-77
2022/01/01 02:36:09;;;;;;;7.93;0.90;;;27.90;99.90;;;;;;5058338;28;20197;-77
2022/01/01 02:38:40;;;;;;;3.97;0.70;;;27.90;99.90;;;;;;5068276;28;20664;-77
2022/01/01 02:41:11;;;;;;;2.25;0.68;;;28.10;99.90;;;;;;5072992;28;20185;-77
2022/01/01 02:43:47;;;;;;;3.38;0.70;;;28.10;99.90;;;;;;5065720;28;20213;-78
2022/01/01 02:46:18;;;;;;;5.38;0.82;;;28.00;99.90;;;;;;5071304;28;20189;-77
2022/01/01 02:48:49;;;;;;;6.60;1.00;;;28.10;99.90;;;;;;5072737;28;20193;-77
2022/01/01 02:51:21;;;;;;;2.92;0.82;;;28.10;99.90;;;;;;5073714;28;20189;-78
2022/01/01 02:53:52;;;;;;;2.03;0.68;;;28.20;99.90;;;;;;5091202;28;20188;-77
2022/01/01 02:56:26;;;;;;;6.53;0.73;;;28.10;99.90;;;;;;5095139;28;20266;-78
2022/01/01 02:58:56;;;;;;;7.40;0.82;;;27.90;99.90;;;;;;5091389;28;20188;-77
2022/01/01 03:01:27;;;;;;;2.45;0.60;;;27.80;99.90;;;;;;5084313;28;20254;-77
2022/01/01 03:03:59;;;;;;;4.47;0.90;;;27.70;99.90;;;;;;5074985;28;20213;-77
2022/01/01 03:06:31;;;;;;;4.32;0.88;;;27.70;99.90;;;;;;5073263;28;20207;-76
2022/01/01 03:09:02;;;;;;;3.85;0.85;;;27.60;99.90;;;;;;5076220;28;20189;-76
2022/01/01 03:11:33;;;;;;;3.78;0.80;;;27.60;99.90;;;;;;5076174;28;20611;-77
2022/01/01 03:14:03;;;;;;;4.63;0.90;;;27.50;99.90;;;;;;5074830;28;20235;-77
2022/01/01 03:16:34;;;;;;;3.25;0.90;;;27.40;99.90;;;;;;5080154;28;20184;-76
2022/01/01 03:19:05;;;;;;;5.93;1.00;;;27.40;99.90;;;;;;5086853;28;20197;-77
2022/01/01 03:21:37;;;;;;;4.88;0.93;;;27.50;99.90;;;;;;5074124;28;20193;-77
2022/01/01 03:24:10;;;;;;;4.22;0.82;;;27.40;99.90;;;;;;5063823;28;20530;-77
2022/01/01 03:26:40;;;;;;;3.50;0.90;;;27.60;99.90;;;;;;5069925;28;20197;-76
2022/01/01 03:29:11;;;;;;;5.55;0.93;;;27.90;99.90;;;;;;5082995;28;20200;-77
2022/01/01 03:31:42;;;;;;;4.95;1.00;;;28.10;99.90;;;;;;5090045;28;20276;-77
2022/01/01 03:34:13;;;;;;;4.05;1.00;;;27.90;99.90;;;;;;5094306;28;20224;-78
2022/01/01 03:36:45;;;;;;;5.45;1.00;;;27.80;99.90;;;;;;5077920;28;20203;-77
2022/01/01 03:39:16;;;;;;;4.15;0.90;;;27.70;99.90;;;;;;5073142;28;20286;-78
2022/01/01 03:41:47;;;;;;;4.82;0.90;;;27.50;99.90;;;;;;5072116;28;20188;-77
2022/01/01 03:44:18;;;;;;;5.88;1.20;;;27.70;99.90;;;;;;5079348;28;20192;-77
2022/01/01 03:46:49;;;;;;;4.88;0.98;;;27.80;99.90;;;;;;5080152;28;20197;-78
2022/01/01 03:49:19;;;;;;;6.57;1.42;;;28.00;99.90;;;;;;5075838;28;20196;-78
2022/01/01 03:51:53;;;;;;;7.50;1.13;;;27.90;99.90;;;;;;5079221;28;20695;-77
2022/01/01 03:54:23;;;;;;;6.40;1.00;;;27.90;99.90;;;;;;5082000;28;20185;-78
2022/01/01 03:56:54;;;;;;;3.55;0.88;;;27.80;99.90;;;;;;5085800;28;20587;-76
2022/01/01 03:59:26;;;;;;;6.28;0.70;;;27.60;99.90;;;;;;5084210;28;20561;-78
2022/01/01 04:01:57;;;;;;;7.85;1.05;;;27.60;99.90;;;;;;5080123;28;20200;-77
2022/01/01 04:04:28;;;;;;;4.95;0.70;;;27.50;99.90;;;;;;5075514;28;20209;-78
2022/01/01 04:07:02;;;;;;;4.93;0.77;;;27.30;99.90;;;;;;5088695;28;20217;-76
2022/01/01 04:09:33;;;;;;;9.50;1.00;;;27.10;99.90;;;;;;5089195;28;20193;-76
2022/01/01 04:12:03;;;;;;;4.07;0.70;;;27.10;99.90;;;;;;5077172;28;20637;-77
2022/01/01 04:14:34;;;;;;;4.05;0.90;;;27.00;99.90;;;;;;5074950;28;20233;-77
2022/01/01 04:17:09;;;;;;;3.63;0.80;;;26.90;99.90;;;;;;5071099;28;20204;-76
2022/01/01 04:19:40;;;;;;;6.20;1.00;;;26.80;99.90;;;;;;5075135;28;20193;-78
2022/01/01 04:22:15;;;;;;;4.95;0.90;;;26.80;99.90;;;;;;5081239;28;20703;-75
2022/01/01 04:24:46;;;;;;;6.57;1.00;;;26.70;99.90;;;;;;5093597;28;20222;-77
2022/01/01 04:27:16;;;;;;;6.50;0.82;;;26.70;99.90;;;;;;5089710;28;20188;-76
2022/01/01 04:29:47;;;;;;;6.28;1.05;;;26.60;99.90;;;;;;5076268;28;20185;-77
2022/01/01 04:32:18;;;;;;;5.82;1.05;;;26.70;99.90;;;;;;5074556;28;20640;-76
2022/01/01 04:34:49;;;;;;;4.57;0.88;;;26.80;99.90;;;;;;5074456;28;20219;-76
2022/01/01 04:37:22;;;;;;;4.22;1.00;;;26.90;99.90;;;;;;5078306;28;20188;-78
2022/01/01 04:39:58;;;;;;;5.40;1.00;;;26.90;99.90;;;;;;5074825;28;20216;-77
2022/01/01 04:42:30;;;;;;;8.07;0.90;;;26.90;99.90;;;;;;5093349;28;20552;-78
2022/01/01 04:45:01;;;;;;;6.63;1.10;;;26.90;99.90;;;;;;5086679;28;20200;-77
2022/01/01 04:47:32;;;;;;;7.25;1.02;;;26.80;99.90;;;;;;5073855;28;20184;-79
2022/01/01 04:50:04;;;;;;;7.55;1.10;;;26.90;99.90;;;;;;5086632;28;20203;-77
2022/01/01 04:52:36;;;;;;;8.23;1.23;;;26.90;99.90;;;;;;5076978;28;20197;-77
2022/01/01 04:55:08;;;;;;;4.65;0.95;;;26.80;99.90;;;;;;5083500;28;20197;-79
2022/01/01 04:57:38;;;;;;;6.35;1.10;;;26.90;99.90;;;;;;5071579;28;20201;-77
2022/01/01 05:00:10;;;;;;;7.53;1.17;;;26.80;99.90;;;;;;5062112;28;20679;-77
2022/01/01 05:02:41;;;;;;;5.80;1.30;;;26.80;99.90;;;;;;5073858;28;20209;-78
2022/01/01 05:05:12;;;;;;;3.95;0.98;;;26.90;99.90;;;;;;5082881;28;20190;-77
2022/01/01 05:07:48;;;;;;;4.75;1.00;;;26.80;99.90;;;;;;5074261;28;20637;-76
2022/01/01 05:10:18;;;;;;;6.35;1.00;;;26.80;99.90;;;;;;5082823;28;20715;-77
2022/01/01 05:12:49;;;;;;;7.72;1.05;;;26.80;99.90;;;;;;5077717;28;20215;-77
2022/01/01 05:15:20;;;;;;;5.47;0.93;;;26.90;99.90;;;;;;5080872;28;20207;-76
2022/01/01 05:17:50;;;;;;;4.85;1.30;;;27.00;99.90;;;;;;5077551;28;20192;-76
2022/01/01 05:20:21;;;;;;;7.45;1.05;;;26.80;99.90;;;;;;5074971;28;20268;-77
2022/01/01 05:22:54;;;;;;;4.72;1.10;;;26.90;99.90;;;;;;5084395;28;20643;-77
2022/01/01 05:25:24;;;;;;;6.13;1.20;;;26.80;99.90;;;;;;5073738;28;20234;-78
2022/01/01 05:27:55;;;;;;;9.48;1.17;;;26.60;99.90;;;;;;5081529;28;20231;-77
2022/01/01 05:30:26;;;;;;;7.30;1.20;;;26.60;99.90;;;;;;5073773;28;20607;-77
2022/01/01 05:32:56;;;;;;;5.55;1.00;;;26.60;99.90;;;;;;5073075;28;20232;-77
2022/01/01 05:35:27;;;;;;;5.07;1.00;;;26.60;99.90;;;;;;5067672;28;20215;-77
2022/01/01 05:38:00;;;;;;;6.00;1.10;;;26.60;99.90;;;;;;5079151;28;20218;-78
2022/01/01 05:40:30;;;;;;;7.43;1.50;;;26.60;99.90;;;;;;5091063;28;20184;-77
2022/01/01 05:43:01;;;;;;;8.80;0.95;;;26.70;99.90;;;;;;5073206;28;20213;-77
2022/01/01 05:45:32;;;;;;;4.82;1.05;;;26.50;99.90;;;;;;5074506;28;20189;-77
2022/01/01 05:48:02;;;;;;;9.82;1.10;;;26.60;99.90;;;;;;5072811;28;20189;-78
2022/01/01 05:50:33;;;;;;;9.48;1.30;;;26.60;99.90;;;;;;5069335;28;20625;-76
2022/01/01 05:53:06;;;;;;;7.40;1.55;;;26.70;99.90;;;;;;5087715;28;20200;-78
2022/01/01 05:55:36;;;;;;;8.10;1.27;;;26.60;99.90;;;;;;5073370;28;20637;-77
2022/01/01 05:58:07;;;;;;;6.60;1.20;;;26.70;99.90;;;;;;5073240;28;20193;-77
2022/01/01 06:00:38;;;;;;;3.97;1.00;;;26.70;99.90;;;;;;5078621;28;20200;-78
2022/01/01 06:03:09;;;;;;;8.00;1.40;;;26.70;99.90;;;;;;5080132;28;20205;-78
2022/01/01 06:05:40;;;;;;;6.35;1.40;;;26.60;99.90;;;;;;5076514;28;20192;-77
2022/01/01 06:08:13;;;;;;;9.82;1.60;;;26.40;99.90;;;;;;5072831;28;20637;-77
2022/01/01 06:10:43;;;;;;;7.35;1.48;;;26.30;99.90;;;;;;5072037;28;20221;-78
2022/01/01 06:13:14;;;;;;;13.52;1.80;;;26.20;99.90;;;;;;5072634;28;20237;-77
2022/01/01 06:15:45;;;;;;;8.82;1.35;;;26.10;99.90;;;;;;5072727;28;20185;-78
2022/01/01 06:18:16;;;;;;;5.68;1.10;;;26.00;99.90;;;;;;5072359;28;20208;-76
2022/01/01 06:20:47;;;;;;;7.63;1.20;;;26.00;99.90;;;;;;5073626;28;20258;-77
2022/01/01 06:23:19;;;;;;;11.55;1.60;;;26.00;99.90;;;;;;5081244;28;20799;-77
2022/01/01 06:25:50;;;;;;;15.40;1.40;;;26.00;99.90;;;;;;5085655;28;20192;-78
2022/01/01 06:28:21;;;;;;;5.63;1.27;;;25.90;99.90;;;;;;5073139;28;20185;-77
2022/01/01 06:30:52;;;;;;;6.97;1.38;;;25.90;99.90;;;;;;5072670;28;20234;-79
2022/01/01 06:33:22;;;;;;;8.50;1.23;;;25.70;99.90;;;;;;5071111;28;20216;-78
2022/01/01 06:35:53;;;;;;;9.95;1.60;;;25.70;99.90;;;;;;5066834;28;20235;-77
2022/01/01 06:38:25;;;;;;;7.13;1.30;;;25.70;99.90;;;;;;5072714;28;20239;-77
2022/01/01 06:40:56;;;;;;;7.32;1.20;;;25.60;99.90;;;;;;5072784;28;20555;-76
2022/01/01 06:43:32;;;;;;;7.93;1.10;;;25.50;99.90;;;;;;5073460;28;20212;-78
2022/01/01 06:46:03;;;;;;;10.65;1.30;;;25.50;99.90;;;;;;5073933;28;20192;-77
2022/01/01 06:48:34;;;;;;;5.80;1.08;;;25.40;99.90;;;;;;5074037;28;20185;-79
2022/01/01 06:51:05;;;;;;;8.45;1.30;;;25.20;99.90;;;;;;5067654;28;20233;-78
2022/01/01 06:53:37;;;;;;;8.57;1.50;;;25.10;99.90;;;;;;5072599;28;20272;-78
2022/01/01 06:56:09;;;;;;;7.30;1.20;;;25.10;99.90;;;;;;5074001;28;20613;-79
2022/01/01 06:58:40;;;;;;;8.25;1.55;;;25.10;99.90;;;;;;5089912;28;20196;-78
2022/01/01 07:01:11;;;;;;;7.10;1.10;;;25.00;99.90;;;;;;5075118;28;20193;-83
2022/01/01 07:03:42;;;;;;;8.45;1.17;;;25.00;99.90;;;;;;5073104;28;20209;-78
2022/01/01 07:06:12;;;;;;;8.65;1.20;;;25.00;99.90;;;;;;5074123;28;20200;-78
2022/01/01 07:08:45;;;;;;;5.78;1.15;;;25.00;99.90;;;;;;5078314;28;20208;-77
2022/01/01 07:11:16;;;;;;;11.50;1.40;;;25.00;99.90;;;;;;5075184;28;20181;-77
2022/01/01 07:13:47;;;;;;;7.55;1.20;;;24.80;99.90;;;;;;5088106;28;20346;-76
2022/01/01 07:16:17;;;;;;;15.80;1.70;;;24.90;99.90;;;;;;5088266;28;20182;-77
2022/01/01 07:18:48;;;;;;;10.13;1.40;;;24.90;99.90;;;;;;5074872;28;20189;-77
2022/01/01 07:21:19;;;;;;;5.47;1.35;;;24.90;99.90;;;;;;5075390;28;20189;-77
2022/01/01 07:23:51;;;;;;;11.13;1.63;;;24.90;99.90;;;;;;5075243;28;20224;-77
2022/01/01 07:26:22;;;;;;;9.20;1.25;;;24.80;99.90;;;;;;5073130;28;20192;-78
2022/01/01 07:28:53;;;;;;;8.50;1.75;;;24.90;99.90;;;;;;5088054;28;20199;-78
2022/01/01 07:31:23;;;;;;;9.40;1.77;;;24.90;99.90;;;;;;5079577;28;20189;-79
2022/01/01 07:33:54;;;;;;;10.82;1.88;;;24.90;99.90;;;;;;5072528;28;20221;-77
2022/01/01 07:36:25;;;;;;;12.23;2.17;;;24.90;99.90;;;;;;5080206;28;20221;-78
2022/01/01 07:38:57;;;;;;;8.20;1.45;;;24.90;99.90;;;;;;5094472;28;20199;-77
2022/01/01 07:41:28;;;;;;;11.00;1.73;;;24.80;99.90;;;;;;5096009;28;20192;-78
2022/01/01 07:43:59;;;;;;;10.90;1.48;;;24.80;99.90;;;;;;5083316;28;20224;-78
2022/01/01 07:46:29;;;;;;;9.55;2.08;;;24.80;99.90;;;;;;5087015;28;20193;-77
2022/01/01 07:49:00;;;;;;;7.93;1.42;;;24.80;99.90;;;;;;5075839;28;20181;-79
2022/01/01 07:51:31;;;;;;;9.13;1.52;;;24.80;99.90;;;;;;5082252;28;20185;-77
2022/01/01 07:54:03;;;;;;;8.10;1.60;;;24.70;99.90;;;;;;5086712;28;20189;-77
2022/01/01 07:56:34;;;;;;;8.80;1.73;;;24.80;99.90;;;;;;5092251;28;20215;-77
2022/01/01 07:59:05;;;;;;;9.20;1.60;;;24.80;99.90;;;;;;5094031;28;20181;-77
2022/01/01 08:01:36;;;;;;;12.05;1.52;;;24.80;99.90;;;;;;5082718;28;20196;-77
2022/01/01 08:04:07;;;;;;;9.95;1.55;;;24.80;99.90;;;;;;5085320;28;20200;-77
2022/01/01 08:06:37;;;;;;;10.32;1.50;;;24.70;99.90;;;;;;5075988;28;20193;-78
2022/01/01 08:09:10;;;;;;;7.25;1.52;;;24.70;99.90;;;;;;5094546;28;20253;-78
2022/01/01 08:11:41;;;;;;;12.18;1.73;;;24.70;99.90;;;;;;5083749;28;20181;-78
2022/01/01 08:14:13;;;;;;;10.75;1.67;;;24.70;99.90;;;;;;5095470;28;20239;-77
2022/01/01 08:16:58;;;;;;;11.57;1.60;;;24.70;99.90;;;;;;5077956;28;20238;-77
2022/01/01 08:19:28;;;;;;;11.38;1.40;;;24.70;99.90;;;;;;5073375;28;20189;-77
2022/01/01 08:21:59;;;;;;;10.93;1.65;;;24.80;99.90;;;;;;5057698;28;20721;-77
2022/01/01 08:24:32;;;;;;;9.65;1.70;;;24.80;99.90;;;;;;5079218;28;20219;-77
2022/01/01 08:27:03;;;;;;;8.90;1.50;;;24.80;99.90;;;;;;5072560;28;20671;-78
2022/01/01 08:29:33;;;;;;;12.82;1.70;;;24.80;99.90;;;;;;5076327;28;20235;-78
2022/01/01 08:32:04;;;;;;;12.88;1.55;;;24.70;99.90;;;;;;5073997;28;20618;-77
2022/01/01 08:34:35;;;;;;;8.10;1.60;;;24.70;99.90;;;;;;5073943;28;20193;-76
2022/01/01 08:37:06;;;;;;;8.80;1.48;;;24.60;99.90;;;;;;5074687;28;20193;-78
2022/01/01 08:39:39;;;;;;;8.13;1.58;;;24.60;99.90;;;;;;5074848;28;20189;-79
2022/01/01 08:42:11;;;;;;;8.18;1.40;;;24.60;99.90;;;;;;5074592;28;20783;-77
2022/01/01 08:44:41;;;;;;;10.85;1.75;;;24.50;99.90;;;;;;5074385;28;20209;-77
2022/01/01 08:47:12;;;;;;;7.55;1.60;;;24.50;99.90;;;;;;5092882;28;20655;-79
2022/01/01 08:49:43;;;;;;;12.73;1.80;;;24.40;99.90;;;;;;5054248;28;20194;-77
2022/01/01 08:52:14;;;;;;;8.70;1.55;;;24.40;99.90;;;;;;5068824;28;20189;-77
2022/01/01 08:54:47;;;;;;;11.60;1.70;;;24.30;99.90;;;;;;5074118;28;20707;-77
2022/01/01 08:57:18;;;;;;;7.93;1.50;;;24.30;99.90;;;;;;5074087;28;20197;-78
2022/01/01 08:59:49;;;;;;;10.02;1.58;;;24.30;99.90;;;;;;5076271;28;20208;-77
2022/01/01 09:02:20;;;;;;;8.35;1.80;;;24.20;99.90;;;;;;5074231;28;20200;-77
2022/01/01 09:04:51;;;;;;;11.75;1.83;;;24.20;99.90;;;;;;5073089;28;20267;-78
2022/01/01 09:07:28;;;;;;;12.98;1.80;;;24.10;99.90;;;;;;5069267;28;20196;-79
2022/01/01 09:10:01;;;;;;;9.65;1.45;;;24.10;99.90;;;;;;5069153;28;20189;-78
2022/01/01 09:12:32;;;;;;;15.05;2.15;;;24.10;99.90;;;;;;5055982;28;20229;-77
2022/01/01 09:15:03;;;;;;;11.32;1.80;;;24.10;99.90;;;;;;5055116;28;20202;-78
2022/01/01 09:17:33;;;;;;;12.43;1.65;;;24.00;99.90;;;;;;5067304;28;20189;-78
2022/01/01 09:20:05;;;;;;;10.05;1.70;;;24.00;99.90;;;;;;5068819;28;20280;-79
2022/01/01 09:22:35;;;;;;;12.93;1.73;;;24.00;99.90;;;;;;5068940;28;20190;-78
2022/01/01 09:25:08;;;;;;;11.63;2.10;;;24.00;99.90;;;;;;5068681;28;20212;-78
2022/01/01 09:27:39;;;;;;;10.80;2.13;;;24.00;99.90;;;;;;5075273;28;20562;-77
2022/01/01 09:30:11;;;;;;;11.75;1.70;;;24.00;99.90;;;;;;5083507;28;20197;-77
2022/01/01 09:32:41;;;;;;;15.43;1.92;;;24.00;99.90;;;;;;5070553;28;20221;-77
2022/01/01 09:35:14;;;;;;;15.00;2.03;;;23.90;99.90;;;;;;5066169;28;20615;-78
2022/01/01 09:37:44;;;;;;;17.45;2.10;;;23.90;99.90;;;;;;5074876;28;20188;-77
2022/01/01 09:40:17;;;;;;;11.10;1.75;;;23.90;99.90;;;;;;5073729;28;20238;-77
2022/01/01 09:42:48;;;;;;;12.98;2.10;;;23.90;99.90;;;;;;5072762;28;20189;-77
2022/01/01 09:45:19;;;;;;;10.43;1.95;;;23.90;99.90;;;;;;5058557;28;20230;-78
2022/01/01 09:47:51;;;;;;;14.13;2.05;;;23.80;99.90;;;;;;5070635;28;20192;-77
2022/01/01 09:50:21;;;;;;;13.85;2.05;;;23.80;99.90;;;;;;5074443;28;20193;-76
2022/01/01 09:52:52;;;;;;;16.75;2.00;;;23.80;99.90;;;;;;5072545;28;20643;-77
2022/01/01 09:55:25;;;;;;;15.57;1.85;;;23.80;99.90;;;;;;5073222;28;20184;-77
2022/01/01 09:57:55;;;;;;;12.32;1.92;;;23.80;99.90;;;;;;5077550;28;20188;-78
2022/01/01 10:00:26;;;;;;;12.63;2.13;;;23.80;99.90;;;;;;5093193;28;20586;-77
2022/01/01 10:02:57;;;;;;;14.27;2.00;;;23.70;99.90;;;;;;5082437;28;20233;-78
2022/01/01 10:05:28;;;;;;;11.80;2.13;;;23.70;99.90;;;;;;5077273;28;20710;-77
2022/01/01 10:08:03;;;;;;;14.88;1.95;;;23.70;99.90;;;;;;5080096;28;20193;-77
2022/01/01 10:10:37;;;;;;;11.57;1.85;;;23.70;99.90;;;;;;5073204;28;20713;-78
2022/01/01 10:13:12;;;;;;;14.82;2.33;;;23.60;99.90;;;;;;5078262;28;20231;-78
2022/01/01 10:15:42;;;;;;;13.25;2.00;;;23.60;99.90;;;;;;5086069;28;20199;-77
2022/01/01 10:18:13;;;;;;;10.88;2.03;;;23.60;99.90;;;;;;5086676;28;20242;-77
2022/01/01 10:20:44;;;;;;;13.38;2.20;;;23.60;99.90;;;;;;5082621;28;20251;-78
2022/01/01 10:23:16;;;;;;;15.25;1.95;;;23.60;99.90;;;;;;5075229;28;20199;-78
2022/01/01 10:28:36;;;;;;;9.68;1.75;;;23.60;99.90;;;;;;5075572;28;20196;-78
2022/01/01 10:31:11;;;;;;;10.50;2.00;;;23.60;99.90;;;;;;5072169;28;20224;-78
2022/01/01 10:33:51;;;;;;;9.27;1.67;;;23.60;99.90;;;;;;5067425;28;20567;-77
2022/01/01 10:36:24;;;;;;;15.70;1.63;;;23.60;99.90;;;;;;5070017;28;20195;-77
2022/01/01 10:38:55;;;;;;;11.40;2.30;;;23.60;99.90;;;;;;5074794;28;20271;-77
2022/01/01 10:41:28;;;;;;;12.45;1.70;;;23.60;99.90;;;;;;5078857;28;20192;-77
2022/01/01 10:44:08;;;;;;;8.45;1.52;;;23.60;99.90;;;;;;5061819;28;20190;-77
2022/01/01 10:46:41;;;;;;;9.27;1.60;;;23.50;99.90;;;;;;5073472;28;20181;-76
2022/01/01 10:49:49;;;;;;;10.55;1.60;;;23.50;99.90;;;;;;5072456;28;20191;-77
2022/01/01 10:52:23;;;;;;;9.27;1.40;;;23.50;99.90;;;;;;5071991;28;20215;-76
2022/01/01 10:54:56;;;;;;;11.25;1.80;;;23.50;99.90;;;;;;5072039;28;20189;-76
2022/01/01 10:57:35;;;;;;;10.23;1.30;;;23.50;99.90;;;;;;5076102;28;20203;-76
2022/01/01 11:00:12;;;;;;;9.40;1.42;;;23.50;99.90;;;;;;5072977;28;20277;-77
2022/01/01 11:02:44;;;;;;;10.55;1.38;;;23.40;99.90;;;;;;5085331;28;20192;-76
2022/01/01 11:05:15;;;;;;;11.02;1.70;;;23.40;99.90;;;;;;5091712;28;20698;-77
2022/01/01 11:07:56;;;;;;;9.95;1.65;;;23.50;99.90;;;;;;5072497;28;20567;-77
2022/01/01 11:10:28;;;;;;;13.50;1.73;;;23.40;99.90;;;;;;5077635;28;20199;-76
2022/01/01 11:13:02;;;;;;;9.13;1.60;;;23.40;99.90;;;;;;5087972;28;20648;-77
2022/01/01 11:15:33;;;;;;;7.75;1.52;;;23.40;99.90;;;;;;5078374;28;20196;-76
2022/01/01 11:18:04;;;;;;;8.10;1.40;;;23.40;99.90;;;;;;5080291;28;20189;-76
2022/01/01 11:20:37;;;;;;;12.60;1.77;;;23.40;99.90;;;;;;5075966;28;20196;-76
2022/01/01 11:23:10;;;;;;;8.60;1.77;;;23.40;99.90;;;;;;5083375;28;20180;-76
2022/01/01 11:25:42;;;;;;;9.07;1.45;;;23.40;99.90;;;;;;5096192;28;20209;-76
2022/01/01 11:28:16;;;;;;;10.55;1.88;;;23.30;99.90;;;;;;5082608;28;20195;-76
2022/01/01 11:30:52;;;;;;;8.80;1.50;;;23.40;99.90;;;;;;5086362;28;20216;-76
2022/01/01 11:33:31;;;;;;;8.57;1.60;;;23.30;99.90;;;;;;5085080;28;20678;-76
2022/01/01 11:36:02;;;;;;;9.95;1.55;;;23.30;99.90;;;;;;5067160;28;20232;-77
2022/01/01 11:38:35;;;;;;;14.68;2.33;;;23.30;99.90;;;;;;5079830;28;20193;-77
2022/01/01 11:41:08;;;;;;;11.73;1.63;;;23.30;99.90;;;;;;5077096;28;20189;-77
2022/01/01 11:43:42;;;;;;;6.65;1.30;;;23.30;99.90;;;;;;5075572;28;20200;-77
2022/01/01 11:46:15;;;;;;;16.63;1.67;;;23.20;99.90;;;;;;5084782;28;20272;-77
2022/01/01 11:48:56;;;;;;;12.82;1.80;;;23.20;99.90;;;;;;5084621;28;20193;-77
2022/01/01 11:51:35;;;;;;;6.55;1.60;;;23.20;99.90;;;;;;5077040;28;20188;-77
2022/01/01 11:54:24;;;;;;;10.68;1.70;;;23.20;99.90;;;;;;5076656;28;20185;-76
2022/01/01 11:57:17;;;;;;;13.88;2.20;;;23.20;99.90;;;;;;5055690;28;20225;-77
2022/01/01 12:00:00;;;;;;;12.60;1.77;;;23.10;99.90;;;;;;5058491;28;20710;-76
2022/01/01 12:02:48;;;;;;;8.40;1.65;;;23.10;99.90;;;;;;5076703;28;20277;-77
2022/01/01 12:05:27;;;;;;;11.73;1.80;;;23.10;99.90;;;;;;5074361;28;20619;-77
2022/01/01 12:08:01;;;;;;;14.38;2.17;;;23.00;99.90;;;;;;5075543;28;20189;-77
2022/01/01 12:10:37;;;;;;;10.75;2.15;;;23.00;99.90;;;;;;5074901;28;20207;-77
2022/01/01 12:13:09;;;;;;;15.68;1.75;;;23.00;99.90;;;;;;5075747;28;20235;-76
2022/01/01 12:15:48;;;;;;;10.98;1.67;;;23.00;99.90;;;;;;5089637;28;20195;-76
2022/01/01 12:18:20;;;;;;;12.82;2.00;;;23.00;99.90;;;;;;5091317;28;20200;-76
2022/01/01 12:20:57;;;;;;;11.48;1.83;;;23.00;99.90;;;;;;5075118;28;20197;-76
2022/01/01 12:23:29;;;;;;;11.63;1.80;;;23.10;99.90;;;;;;5085962;28;20660;-77
2022/01/01 12:26:00;;;;;;;16.77;1.88;;;23.00;99.90;;;;;;5089326;28;20216;-76
2022/01/01 12:28:34;;;;;;;10.70;1.75;;;23.00;99.90;;;;;;5088188;28;20282;-77
2022/01/01 12:31:12;;;;;;;7.82;1.60;;;23.00;99.90;;;;;;5075278;28;20739;-76
2022/01/01 12:33:47;;;;;;;11.50;1.77;;;23.00;99.90;;;;;;5062270;28;20197;-76
2022/01/01 12:36:19;;;;;;;9.88;1.60;;;23.00;99.90;;;;;;5091623;28;20552;-78
2022/01/01 12:38:55;;;;;;;10.18;1.80;;;23.00;99.90;;;;;;5094851;28;20184;-77
2022/01/01 12:41:34;;;;;;;10.63;2.17;;;23.00;99.90;;;;;;5089890;28;20667;-77
2022/01/01 12:44:06;;;;;;;14.48;2.03;;;22.90;99.90;;;;;;5087507;28;20191;-76
2022/01/01 12:46:41;;;;;;;8.65;1.50;;;22.90;99.90;;;;;;5063573;28;20217;-77
2022/01/01 12:49:12;;;;;;;8.45;1.50;;;22.90;99.90;;;;;;5074221;28;20655;-76
2022/01/01 12:51:42;;;;;;;13.23;1.42;;;22.90;99.90;;;;;;5074444;28;20196;-76
2022/01/01 12:54:14;;;;;;;11.25;1.58;;;22.90;99.90;;;;;;5073810;28;20200;-77
2022/01/01 12:56:46;;;;;;;9.38;1.67;;;22.90;99.90;;;;;;5074576;28;20189;-77
2022/01/01 12:59:18;;;;;;;8.02;1.35;;;22.90;99.90;;;;;;5074032;28;20193;-76
2022/01/01 13:01:55;;;;;;;10.65;1.60;;;22.90;99.90;;;;;;5082803;28;20188;-76
2022/01/01 13:04:31;;;;;;;7.45;1.40;;;22.90;99.90;;;;;;5081066;28;20189;-77
2022/01/01 13:07:03;;;;;;;10.75;1.70;;;22.80;99.90;;;;;;5073839;28;20572;-77
2022/01/01 13:09:34;;;;;;;10.57;1.58;;;22.80;99.90;;;;;;5074157;28;20649;-76
2022/01/01 13:12:06;;;;;;;7.22;1.40;;;22.80;99.90;;;;;;5082197;28;20185;-76